Time;durP1;ratioP1;P1;durP2;ratioP2;P2;SDS_P1;SDS_P2;PMS_P1;PMS_P2;Temp;Humidity;BMP_temperature;BMP_pressure;BME280_temperature;BME280_humidity;BME280_pressure;Samples;Min_cycle;Max_cycle;Signal;HPM_P1;HPM_P2
2022/11/15 00:01:31;;;;;;;4.28;2.50;;;;;;;12.53;38.58;101953.84;4949050;28;20047;-75
2022/11/15 00:04:01;;;;;;;4.38;2.10;;;;;;;12.44;39.67;101956.03;4946874;28;20056;-77
2022/11/15 00:06:30;;;;;;;4.70;2.67;;;;;;;12.35;38.99;101946.19;4951615;28;20089;-76
2022/11/15 00:09:01;;;;;;;3.25;2.13;;;;;;;12.26;39.85;101951.88;4947308;28;20610;-78
2022/11/15 00:11:29;;;;;;;3.17;2.20;;;;;;;12.20;40.25;101964.56;4946914;28;20197;-76
2022/11/15 00:13:59;;;;;;;7.95;2.58;;;;;;;12.15;40.34;101969.56;4947493;28;20062;-75
2022/11/15 00:16:27;;;;;;;3.28;1.98;;;;;;;12.09;40.26;101958.03;4950995;28;20110;-76
2022/11/15 00:18:58;;;;;;;3.83;2.40;;;;;;;12.00;40.80;101968.91;4954476;28;20066;-78
2022/11/15 00:21:28;;;;;;;5.28;2.38;;;;;;;11.91;40.14;101965.91;4950479;28;20062;-76
2022/11/15 00:23:57;;;;;;;4.47;2.42;;;;;;;11.81;40.48;101961.13;4952633;28;20137;-78
2022/11/15 00:26:25;;;;;;;4.53;2.47;;;;;;;11.70;41.65;101963.25;4952304;28;20119;-83
2022/11/15 00:28:54;;;;;;;8.82;1.98;;;;;;;11.61;41.16;101973.19;4951101;28;20082;-77
2022/11/15 00:31:23;;;;;;;3.42;2.33;;;;;;;11.50;40.93;101981.41;4950015;28;20043;-81
2022/11/15 00:33:52;;;;;;;3.60;2.55;;;;;;;11.37;42.00;101976.47;4951521;28;20065;-76
2022/11/15 00:36:21;;;;;;;4.78;2.20;;;;;;;11.27;41.46;101979.44;4950258;28;20151;-77
2022/11/15 00:38:51;;;;;;;5.25;2.67;;;;;;;11.21;40.78;101984.34;4945780;28;20138;-78
2022/11/15 00:41:19;;;;;;;3.53;2.10;;;;;;;11.14;41.62;101984.88;4949800;28;20131;-79
2022/11/15 00:43:48;;;;;;;5.57;2.72;;;;;;;11.03;42.28;101995.63;4944248;28;20109;-76
2022/11/15 00:46:17;;;;;;;4.03;2.47;;;;;;;10.96;42.73;101998.72;4948672;28;20120;-76
2022/11/15 00:48:46;;;;;;;6.38;2.70;;;;;;;10.89;42.65;101988.91;4946290;28;20047;-76
2022/11/15 00:51:14;;;;;;;5.95;2.40;;;;;;;10.83;43.31;101988.59;4950073;28;20043;-74
2022/11/15 00:53:43;;;;;;;4.72;3.00;;;;;;;10.76;42.04;102004.66;4950007;28;20062;-76
2022/11/15 00:56:13;;;;;;;4.47;2.50;;;;;;;10.67;43.66;102002.50;4946560;28;20139;-80
2022/11/15 00:58:42;;;;;;;5.15;2.70;;;;;;;10.59;42.91;101996.06;4942936;28;20058;-77
2022/11/15 01:01:12;;;;;;;2.60;2.13;;;;;;;10.50;43.42;102003.38;4944088;28;20055;-84
2022/11/15 01:03:41;;;;;;;2.63;1.90;;;;;;;10.43;44.41;101999.59;4946790;28;20055;-80
2022/11/15 01:06:11;;;;;;;4.20;2.42;;;;;;;10.37;44.46;101999.28;4944925;28;20055;-83
2022/11/15 01:08:41;;;;;;;7.28;2.38;;;;;;;10.30;44.82;101999.78;4947277;28;20641;-77
2022/11/15 01:11:13;;;;;;;2.42;1.80;;;;;;;10.24;45.66;102006.41;4947921;28;20066;-81
2022/11/15 01:13:41;;;;;;;4.45;2.53;;;;;;;10.15;45.21;101995.59;4949986;28;20081;-79
2022/11/15 01:16:12;;;;;;;4.78;2.38;;;;;;;10.09;45.26;101996.97;4942417;28;20497;-79
2022/11/15 01:18:41;;;;;;;4.45;2.65;;;;;;;10.04;45.44;101999.31;4949766;28;20039;-83
2022/11/15 01:21:11;;;;;;;5.10;2.85;;;;;;;9.99;45.49;101998.19;4946543;28;20062;-79
2022/11/15 01:23:40;;;;;;;5.28;2.65;;;;;;;9.94;45.36;101997.06;4945575;28;20047;-77
2022/11/15 01:26:16;;;;;;;3.75;2.60;;;;;;;9.90;45.12;101997.72;4949007;28;20059;-77
2022/11/15 01:28:45;;;;;;;4.68;2.33;;;;;;;9.76;46.29;101977.22;4945136;28;20069;-79
2022/11/15 01:31:15;;;;;;;3.97;2.50;;;;;;;9.76;45.33;101992.72;4947189;28;20050;-76
2022/11/15 01:33:44;;;;;;;4.03;2.40;;;;;;;9.70;46.59;101984.63;4947067;28;20120;-77
2022/11/15 01:36:14;;;;;;;6.85;3.10;;;;;;;9.61;46.38;101981.56;4941266;28;20043;-77
2022/11/15 01:38:43;;;;;;;4.80;3.00;;;;;;;9.51;46.88;101980.19;4946098;28;20054;-77
2022/11/15 01:41:19;;;;;;;5.45;2.55;;;;;;;9.41;47.17;101971.06;4943823;28;20051;-78
2022/11/15 01:43:50;;;;;;;4.32;2.35;;;;;;;9.35;46.05;101959.50;4948392;28;20046;-81
2022/11/15 01:46:29;;;;;;;4.97;2.72;;;;;;;9.25;46.90;101968.44;4948792;28;20047;-79
2022/11/15 01:49:01;;;;;;;5.53;2.22;;;;;;;9.16;46.89;101963.69;4941665;28;20047;-83
2022/11/15 01:51:31;;;;;;;5.47;2.67;;;;;;;9.08;48.18;101958.91;4946104;28;20043;-79
2022/11/15 01:54:06;;;;;;;5.20;2.70;;;;;;;8.98;47.10;101963.56;4947825;28;20059;-80
2022/11/15 01:56:43;;;;;;;5.82;3.00;;;;;;;8.93;48.08;101956.34;4950623;28;20493;-81
2022/11/15 01:59:13;;;;;;;4.03;2.75;;;;;;;8.89;47.99;101967.34;4947650;28;20055;-83
2022/11/15 02:01:43;;;;;;;3.67;2.40;;;;;;;8.82;47.65;101979.00;4948150;28;20077;-80
2022/11/15 02:04:15;;;;;;;3.70;1.65;;;;;;;8.71;47.51;101980.09;4947734;28;20050;-83
2022/11/15 02:06:45;;;;;;;5.22;2.42;;;;;;;8.67;48.42;101980.72;4949427;28;20059;-81
2022/11/15 02:09:15;;;;;;;3.08;2.13;;;;;;;8.67;48.16;101991.03;4943274;28;20592;-84
2022/11/15 02:11:49;;;;;;;5.40;2.38;;;;;;;8.66;48.44;101999.56;4951410;28;20077;-76
2022/11/15 02:14:21;;;;;;;4.53;2.38;;;;;;;8.64;48.67;101998.59;4944815;28;20055;-79
2022/11/15 02:17:00;;;;;;;3.35;2.08;;;;;;;8.64;47.47;102006.34;4950502;28;20050;-77
2022/11/15 02:19:58;;;;;;;4.22;2.58;;;;;;;8.62;47.80;102013.09;4948429;28;20050;-80
2022/11/15 02:22:38;;;;;;;4.65;2.15;;;;;;;8.57;47.99;102018.88;4947134;28;20051;-75
2022/11/15 02:25:39;;;;;;;3.13;2.00;;;;;;;8.53;47.88;102011.75;4947719;28;20051;-82
2022/11/15 02:28:44;;;;;;;5.72;2.45;;;;;;;8.56;48.83;102024.81;4945333;28;20055;-75
2022/11/15 02:31:23;;;;;;;4.95;2.72;;;;;;;8.54;48.77;102031.63;4937503;28;20047;-77
2022/11/15 02:34:01;;;;;;;3.85;1.90;;;;;;;8.51;47.96;102043.44;4948945;28;20083;-76
2022/11/15 02:36:40;;;;;;;8.80;3.15;;;;;;;8.49;48.29;102043.34;4947579;28;20047;-76
2022/11/15 02:39:12;;;;;;;5.15;2.80;;;;;;;8.45;48.94;102035.31;4944003;28;20134;-75
2022/11/15 02:41:48;;;;;;;4.00;2.45;;;;;;;8.44;48.31;102049.91;4943220;28;20050;-75
2022/11/15 02:44:24;;;;;;;3.42;2.38;;;;;;;8.40;48.64;102045.38;4949536;28;20047;-77
2022/11/15 02:47:15;;;;;;;4.57;2.05;;;;;;;8.39;47.93;102062.50;4950505;28;20098;-80
2022/11/15 02:49:48;;;;;;;6.32;2.38;;;;;;;8.38;49.47;102059.84;4946781;28;20093;-87
2022/11/15 02:52:18;;;;;;;8.05;2.92;;;;;;;8.36;47.21;102066.59;4944059;28;20051;-80
2022/11/15 02:54:58;;;;;;;4.20;2.60;;;;;;;8.29;47.76;102070.53;4949330;28;20047;-82
2022/11/15 02:57:37;;;;;;;3.55;2.33;;;;;;;8.29;47.55;102077.34;4950165;28;20095;-80
2022/11/15 03:00:11;;;;;;;5.30;2.45;;;;;;;8.28;47.57;102083.31;4946062;28;20060;-80
2022/11/15 03:03:08;;;;;;;6.40;1.98;;;;;;;8.28;47.56;102081.63;4946126;28;20043;-81
2022/11/15 03:05:42;;;;;;;4.57;2.50;;;;;;;8.26;48.05;102090.06;4948707;28;20135;-76
2022/11/15 03:08:17;;;;;;;5.78;2.47;;;;;;;8.23;49.35;102085.59;4947233;28;20106;-77
2022/11/15 03:10:54;;;;;;;3.90;2.17;;;;;;;8.24;48.99;102086.50;4943942;28;20560;-78
2022/11/15 03:13:28;;;;;;;3.15;2.60;;;;;;;8.23;49.69;102101.09;4947182;28;20057;-78
2022/11/15 03:16:06;;;;;;;3.67;2.33;;;;;;;8.18;48.16;102093.06;4948273;28;20055;-77
2022/11/15 03:18:40;;;;;;;4.38;2.92;;;;;;;8.21;47.88;102100.09;4946716;28;20164;-77
2022/11/15 03:21:11;;;;;;;5.55;2.78;;;;;;;8.17;47.99;102085.22;4949946;28;20051;-79
2022/11/15 03:23:45;;;;;;;7.22;2.80;;;;;;;8.23;48.31;102095.03;4952104;28;20057;-78
2022/11/15 03:26:16;;;;;;;3.72;2.45;;;;;;;8.20;48.17;102093.16;4940823;28;20048;-79
2022/11/15 03:28:49;;;;;;;4.55;2.35;;;;;;;8.16;48.51;102089.50;4943100;28;20071;-77
2022/11/15 03:34:13;;;;;;;4.53;2.03;;;;;;;8.11;48.64;102096.06;4947733;28;20070;-77
2022/11/15 03:36:42;;;;;;;6.13;2.45;;;;;;;8.14;48.69;102101.41;4950573;28;20062;-78
2022/11/15 03:39:11;;;;;;;7.30;2.28;;;;;;;8.13;50.59;102097.06;4952401;28;20057;-77
2022/11/15 03:41:45;;;;;;;5.38;3.00;;;;;;;8.13;49.12;102099.66;4950072;28;20055;-78
2022/11/15 03:44:21;;;;;;;6.38;2.78;;;;;;;8.04;50.71;102093.94;4940743;28;20065;-77
2022/11/15 03:46:58;;;;;;;3.92;2.30;;;;;;;8.05;48.45;102090.53;4947985;28;20062;-76
2022/11/15 03:49:32;;;;;;;3.92;2.75;;;;;;;8.06;48.23;102094.88;4943251;28;20494;-75
2022/11/15 03:52:04;;;;;;;2.92;1.60;;;;;;;8.05;47.63;102098.28;4944573;28;20508;-77
2022/11/15 03:54:35;;;;;;;5.10;2.67;;;;;;;8.03;47.23;102088.66;4946836;28;20063;-77
2022/11/15 03:57:04;;;;;;;4.97;2.70;;;;;;;8.02;47.72;102100.66;4948111;28;20061;-76
2022/11/15 03:59:33;;;;;;;3.58;2.40;;;;;;;7.97;48.96;102099.47;4945409;28;20054;-76
2022/11/15 04:02:02;;;;;;;6.10;2.55;;;;;;;7.95;48.57;102101.97;4949971;28;20086;-76
2022/11/15 04:04:33;;;;;;;4.68;2.28;;;;;;;7.93;48.33;102106.16;4949247;28;20047;-76
2022/11/15 04:07:01;;;;;;;4.45;2.35;;;;;;;7.91;47.95;102106.84;4949689;28;20059;-76
2022/11/15 04:09:30;;;;;;;4.72;2.70;;;;;;;7.88;47.38;102109.22;4946064;28;20083;-76
2022/11/15 04:11:59;;;;;;;3.95;2.38;;;;;;;7.85;47.99;102111.63;4947332;28;20047;-77
2022/11/15 04:14:28;;;;;;;3.58;2.20;;;;;;;7.80;48.67;102121.63;4943884;28;20059;-77
2022/11/15 04:16:56;;;;;;;4.07;2.00;;;;;;;7.76;49.12;102132.53;4946037;28;20048;-77
2022/11/15 04:24:58;;;;;;;4.10;2.20;;;;;;;7.69;48.68;102131.25;4939637;28;20067;-77
2022/11/15 04:27:26;;;;;;;5.60;2.78;;;;;;;7.66;47.81;102125.91;4949620;28;20047;-78
2022/11/15 04:29:55;;;;;;;3.90;2.40;;;;;;;7.65;47.59;102128.38;4948243;28;20592;-77
2022/11/15 04:32:24;;;;;;;5.25;2.80;;;;;;;7.64;48.25;102132.66;4942666;28;20051;-78
2022/11/15 04:34:53;;;;;;;3.88;2.10;;;;;;;7.62;47.71;102141.09;4949327;28;20058;-77
2022/11/15 04:37:23;;;;;;;4.45;2.80;;;;;;;7.58;47.15;102139.97;4950024;28;20134;-77
2022/11/15 04:39:52;;;;;;;5.45;2.72;;;;;;;7.59;48.96;102139.22;4950016;28;20587;-77
2022/11/15 04:42:23;;;;;;;4.95;2.80;;;;;;;7.55;48.60;102139.81;4944046;28;20058;-77
2022/11/15 04:44:51;;;;;;;4.40;2.50;;;;;;;7.52;48.55;102153.38;4943250;28;20078;-77
2022/11/15 04:47:20;;;;;;;6.85;2.92;;;;;;;7.53;48.19;102156.84;4946273;28;20142;-77
2022/11/15 04:49:49;;;;;;;4.18;2.75;;;;;;;7.51;47.62;102161.91;4944037;28;20075;-78
2022/11/15 04:52:17;;;;;;;3.55;2.67;;;;;;;7.51;48.03;102161.00;4948542;28;20541;-77
2022/11/15 04:54:48;;;;;;;5.10;2.42;;;;;;;7.51;47.73;102166.16;4944525;28;20051;-77
2022/11/15 04:57:17;;;;;;;3.58;2.28;;;;;;;7.49;48.68;102167.72;4946896;28;20054;-77
2022/11/15 04:59:45;;;;;;;3.97;2.55;;;;;;;7.48;48.91;102168.53;4945250;28;20046;-76
2022/11/15 05:02:14;;;;;;;3.53;2.47;;;;;;;7.45;48.54;102165.78;4942119;28;20050;-76
2022/11/15 05:04:41;;;;;;;5.00;2.17;;;;;;;7.41;49.06;102174.09;4954757;28;20515;-76
2022/11/15 05:07:10;;;;;;;5.47;2.20;;;;;;;7.39;48.40;102176.56;4937180;28;20059;-77
2022/11/15 05:09:39;;;;;;;6.15;2.38;;;;;;;7.39;48.31;102184.28;4946112;28;20047;-78
2022/11/15 05:12:09;;;;;;;5.32;2.15;;;;;;;7.39;48.09;102173.97;4944485;28;20057;-77
2022/11/15 05:14:38;;;;;;;3.90;2.42;;;;;;;7.38;48.24;102179.94;4947809;28;20490;-77
2022/11/15 05:17:06;;;;;;;3.42;2.17;;;;;;;7.39;48.66;102178.25;4944582;28;20058;-77
2022/11/15 05:19:35;;;;;;;6.85;2.53;;;;;;;7.37;48.83;102183.28;4940279;28;20058;-77
2022/11/15 05:22:04;;;;;;;3.63;2.40;;;;;;;7.36;48.58;102185.78;4939674;28;20058;-77
2022/11/15 05:24:32;;;;;;;4.15;2.25;;;;;;;7.34;48.51;102183.97;4947398;28;21296;-78
2022/11/15 05:27:01;;;;;;;5.22;2.47;;;;;;;7.33;48.57;102187.34;4949990;28;20417;-77
2022/11/15 05:29:31;;;;;;;4.40;2.15;;;;;;;7.29;48.81;102190.50;4948837;28;20047;-77
2022/11/15 05:32:00;;;;;;;3.53;2.30;;;;;;;7.28;49.31;102201.63;4948383;28;20074;-77
2022/11/15 05:34:29;;;;;;;5.30;2.47;;;;;;;7.26;49.42;102200.63;4949865;28;20047;-78
2022/11/15 05:36:58;;;;;;;6.80;2.45;;;;;;;7.25;49.30;102198.81;4949585;28;20058;-78
2022/11/15 05:39:27;;;;;;;6.25;2.63;;;;;;;7.26;49.40;102203.19;4947659;28;20066;-78
2022/11/15 05:42:01;;;;;;;4.25;2.20;;;;;;;7.24;49.22;102190.97;4946720;28;20051;-77
2022/11/15 05:44:32;;;;;;;3.60;2.30;;;;;;;7.23;48.81;102195.25;4944595;28;20513;-77
2022/11/15 05:47:01;;;;;;;3.38;2.65;;;;;;;7.23;48.80;102202.09;4949825;28;20058;-78
2022/11/15 05:49:38;;;;;;;4.47;2.10;;;;;;;7.23;48.51;102207.25;4940952;28;20056;-78
2022/11/15 05:52:09;;;;;;;4.20;1.80;;;;;;;7.20;48.96;102205.34;4944375;28;20066;-75
2022/11/15 05:54:39;;;;;;;3.92;2.20;;;;;;;7.20;48.63;102202.78;4947454;28;20059;-76
2022/11/15 05:57:07;;;;;;;4.68;2.10;;;;;;;7.21;48.53;102195.94;4949395;28;20046;-76
2022/11/15 05:59:41;;;;;;;3.35;2.10;;;;;;;7.19;48.14;102195.84;4949292;28;20125;-75
2022/11/15 06:02:10;;;;;;;3.85;2.35;;;;;;;7.18;48.59;102194.06;4943594;28;20134;-75
2022/11/15 06:04:39;;;;;;;5.35;2.17;;;;;;;7.15;49.27;102188.72;4944193;28;20069;-77
2022/11/15 06:07:07;;;;;;;3.55;1.88;;;;;;;7.14;49.39;102184.34;4945229;28;20051;-78
2022/11/15 06:09:36;;;;;;;4.30;1.92;;;;;;;7.10;48.73;102178.13;4947123;28;20146;-76
2022/11/15 06:12:05;;;;;;;6.55;2.50;;;;;;;7.09;48.41;102180.59;4949074;28;20086;-77
2022/11/15 06:14:34;;;;;;;3.78;2.47;;;;;;;7.05;49.04;102176.91;4945937;28;20061;-77
2022/11/15 06:17:04;;;;;;;5.43;2.40;;;;;;;7.04;49.86;102187.13;4943308;28;20047;-77
2022/11/15 06:19:32;;;;;;;5.88;2.40;;;;;;;6.99;49.22;102198.78;4943263;28;20043;-78
2022/11/15 06:22:01;;;;;;;4.03;2.05;;;;;;;6.96;49.78;102202.03;4945404;28;20062;-76
2022/11/15 06:24:30;;;;;;;6.60;2.30;;;;;;;6.92;48.76;102193.22;4947916;28;20130;-78
2022/11/15 06:26:58;;;;;;;4.28;3.00;;;;;;;6.90;49.30;102202.50;4946741;28;20051;-76
2022/11/15 06:29:27;;;;;;;4.38;2.15;;;;;;;6.92;48.42;102207.78;4947741;28;20051;-76
2022/11/15 06:31:56;;;;;;;6.28;2.70;;;;;;;6.88;48.05;102206.66;4943156;28;20054;-78
2022/11/15 06:34:26;;;;;;;3.45;2.00;;;;;;;6.89;48.15;102212.69;4946921;28;20560;-77
2022/11/15 06:36:55;;;;;;;6.13;2.15;;;;;;;6.89;48.87;102213.63;4948132;28;20063;-77
2022/11/15 06:39:23;;;;;;;4.47;2.30;;;;;;;6.90;49.08;102220.53;4947291;28;20058;-78
2022/11/15 06:41:52;;;;;;;3.78;2.10;;;;;;;6.91;48.60;102227.44;4950013;28;20047;-76
2022/11/15 06:44:21;;;;;;;5.47;2.60;;;;;;;6.92;49.40;102224.09;4944627;28;20625;-76
2022/11/15 06:46:49;;;;;;;5.18;2.83;;;;;;;6.89;48.80;102212.69;4945535;28;20055;-79
2022/11/15 06:49:18;;;;;;;3.67;2.05;;;;;;;6.91;48.83;102216.25;4947289;28;20520;-77
2022/11/15 06:51:48;;;;;;;3.42;2.08;;;;;;;6.93;49.36;102205.28;4946749;28;20055;-78
2022/11/15 06:54:17;;;;;;;7.03;2.45;;;;;;;6.93;47.99;102202.72;4952416;28;20070;-78
2022/11/15 06:56:46;;;;;;;9.18;3.05;;;;;;;6.90;48.28;102193.91;4950801;28;20039;-77
2022/11/15 06:59:14;;;;;;;6.72;2.75;;;;;;;6.87;48.97;102189.47;4954478;28;20533;-79
2022/11/15 07:01:43;;;;;;;8.13;2.78;;;;;;;6.88;48.71;102198.94;4950681;28;20055;-77
2022/11/15 07:04:11;;;;;;;4.20;2.25;;;;;;;6.91;48.21;102195.69;4948187;28;20998;-77
2022/11/15 07:06:40;;;;;;;9.40;2.83;;;;;;;6.88;48.68;102191.22;4950623;28;20934;-76
2022/11/15 07:09:10;;;;;;;5.43;3.10;;;;;;;6.88;47.78;102178.38;4949449;28;20055;-78
2022/11/15 07:11:39;;;;;;;6.03;2.40;;;;;;;6.87;48.84;102188.53;4952176;28;20051;-78
2022/11/15 07:14:08;;;;;;;2.10;1.38;;;;;;;6.85;49.92;102192.69;4955162;28;20050;-77
2022/11/15 07:16:37;;;;;;;6.60;2.92;;;;;;;6.83;49.27;102182.31;4948284;28;20066;-77
2022/11/15 07:19:06;;;;;;;3.80;2.33;;;;;;;6.80;48.69;102184.66;4954131;28;20047;-77
2022/11/15 07:21:35;;;;;;;6.13;2.95;;;;;;;6.76;49.40;102180.13;4952118;28;20113;-76
2022/11/15 07:24:04;;;;;;;4.85;2.60;;;;;;;6.77;48.81;102166.44;4955403;28;20130;-76
2022/11/15 07:26:34;;;;;;;5.18;2.70;;;;;;;6.75;49.08;102168.03;4951230;28;20055;-76
2022/11/15 07:29:05;;;;;;;4.55;2.95;;;;;;;6.73;49.32;102177.31;4954342;28;20115;-76
2022/11/15 07:31:34;;;;;;;4.63;2.25;;;;;;;6.71;49.46;102186.59;4951140;28;20497;-79
2022/11/15 07:34:05;;;;;;;7.97;3.28;;;;;;;6.65;49.79;102175.91;4952368;28;20076;-78
2022/11/15 07:36:34;;;;;;;4.95;2.70;;;;;;;6.65;49.43;102181.06;4950409;28;20073;-77
2022/11/15 07:39:03;;;;;;;5.10;2.70;;;;;;;6.62;49.46;102179.19;4949724;28;20151;-78
2022/11/15 07:41:33;;;;;;;6.18;2.70;;;;;;;6.61;50.13;102199.63;4951079;28;20165;-78
2022/11/15 07:44:04;;;;;;;5.28;2.50;;;;;;;6.59;50.53;102208.94;4947871;28;20058;-78
2022/11/15 07:46:33;;;;;;;5.07;3.35;;;;;;;6.54;49.93;102207.72;4949682;28;20051;-77
2022/11/15 07:49:02;;;;;;;4.07;2.65;;;;;;;6.53;50.12;102209.41;4952128;28;20055;-77
2022/11/15 07:51:31;;;;;;;6.40;2.90;;;;;;;6.53;50.18;102205.91;4951869;28;20052;-78
2022/11/15 07:53:59;;;;;;;6.53;2.70;;;;;;;6.55;50.22;102201.78;4951258;28;20086;-77
2022/11/15 07:56:28;;;;;;;3.95;2.40;;;;;;;6.54;49.79;102202.59;4947117;28;20058;-77
2022/11/15 07:58:59;;;;;;;6.75;3.20;;;;;;;6.50;50.75;102201.47;4950478;28;20059;-75
2022/11/15 08:01:27;;;;;;;4.90;3.03;;;;;;;6.46;50.48;102205.53;4946678;28;20051;-77
2022/11/15 08:03:56;;;;;;;7.05;2.72;;;;;;;6.47;50.13;102222.72;4948629;28;20044;-76
2022/11/15 08:06:24;;;;;;;4.70;3.08;;;;;;;6.43;50.66;102225.84;4950844;28;20059;-77
2022/11/15 08:08:55;;;;;;;5.00;2.88;;;;;;;6.43;50.33;102231.00;4953773;28;20055;-78
2022/11/15 08:11:24;;;;;;;6.35;3.05;;;;;;;6.46;49.94;102238.94;4950823;28;20089;-77
2022/11/15 08:13:53;;;;;;;4.90;2.35;;;;;;;6.48;49.94;102229.66;4951422;28;20066;-77
2022/11/15 08:16:23;;;;;;;4.88;2.53;;;;;;;6.45;50.54;102237.16;4945598;28;20063;-80
2022/11/15 08:18:52;;;;;;;5.05;2.85;;;;;;;6.47;49.75;102245.84;4946210;28;20051;-78
2022/11/15 08:21:22;;;;;;;9.50;3.20;;;;;;;6.47;49.85;102248.44;4939410;28;20047;-77
2022/11/15 08:23:50;;;;;;;5.53;3.03;;;;;;;6.49;50.27;102254.59;4951998;28;20074;-80
2022/11/15 08:26:19;;;;;;;5.97;3.03;;;;;;;6.51;50.29;102239.28;4950200;28;20043;-79
2022/11/15 08:28:48;;;;;;;6.53;2.88;;;;;;;6.52;49.56;102235.00;4951648;28;20055;-78
2022/11/15 08:31:19;;;;;;;7.47;3.03;;;;;;;6.50;49.33;102233.25;4952591;28;20055;-78
2022/11/15 08:33:51;;;;;;;6.78;2.92;;;;;;;6.53;49.49;102236.78;4950153;28;20043;-79
2022/11/15 08:36:20;;;;;;;4.82;2.90;;;;;;;6.53;48.68;102236.78;4949376;28;20043;-80
2022/11/15 08:38:49;;;;;;;6.00;2.78;;;;;;;6.54;48.96;102218.00;4947318;28;20043;-77
2022/11/15 08:41:26;;;;;;;5.80;2.50;;;;;;;6.55;48.43;102228.41;4942063;28;20410;-77
2022/11/15 08:43:55;;;;;;;4.28;2.28;;;;;;;6.50;49.51;102215.25;4947352;28;20490;-78
2022/11/15 08:46:23;;;;;;;7.80;3.15;;;;;;;6.50;49.26;102215.25;4952212;28;20053;-79
2022/11/15 08:48:54;;;;;;;5.55;2.75;;;;;;;6.49;49.17;102208.28;4945856;28;20303;-77
2022/11/15 08:51:22;;;;;;;4.05;2.50;;;;;;;6.53;49.35;102211.06;4944834;28;20054;-80
2022/11/15 08:53:51;;;;;;;5.72;2.58;;;;;;;6.50;48.70;102202.38;4943832;28;20134;-79
2022/11/15 08:56:20;;;;;;;7.53;3.25;;;;;;;6.47;49.86;102207.28;4949553;28;20574;-76
2022/11/15 08:58:48;;;;;;;4.75;2.20;;;;;;;6.44;49.32;102201.06;4951481;28;20070;-77
2022/11/15 09:01:21;;;;;;;5.38;2.50;;;;;;;6.47;49.62;102215.00;4948556;28;20051;-76
2022/11/15 09:03:50;;;;;;;6.88;3.47;;;;;;;6.47;49.95;102214.13;4948958;28;20058;-78
2022/11/15 09:06:34;;;;;;;5.18;2.60;;;;;;;6.46;49.78;102208.09;4949691;28;20497;-79
2022/11/15 09:09:05;;;;;;;6.78;3.03;;;;;;;6.45;49.32;102225.97;4946130;28;20051;-77
2022/11/15 09:11:34;;;;;;;4.05;2.60;;;;;;;6.44;49.81;102222.53;4947746;28;20055;-78
2022/11/15 09:14:02;;;;;;;7.72;2.88;;;;;;;6.42;49.78;102225.78;4945586;28;20047;-78
2022/11/15 09:16:33;;;;;;;4.75;2.83;;;;;;;6.40;49.43;102228.22;4950535;28;20066;-77
2022/11/15 09:19:01;;;;;;;5.47;2.88;;;;;;;6.41;48.80;102212.00;4949922;28;20652;-76
2022/11/15 09:21:33;;;;;;;7.97;3.63;;;;;;;6.42;48.93;102218.06;4947521;28;20043;-77
2022/11/15 09:24:04;;;;;;;13.27;3.47;;;;;;;6.41;49.13;102214.56;4951208;28;20050;-78
2022/11/15 09:26:32;;;;;;;4.15;2.47;;;;;;;6.41;49.58;102227.44;4947980;28;20059;-77
2022/11/15 09:29:01;;;;;;;5.85;3.03;;;;;;;6.41;49.23;102221.41;4946725;28;20052;-78
2022/11/15 09:31:30;;;;;;;5.70;2.58;;;;;;;6.41;48.82;102221.41;4950145;28;20051;-78
2022/11/15 09:33:59;;;;;;;6.13;3.25;;;;;;;6.40;50.40;102225.66;4951679;28;20051;-78
2022/11/15 09:36:28;;;;;;;3.83;2.40;;;;;;;6.40;48.99;102215.38;4948730;28;20063;-78
2022/11/15 09:39:00;;;;;;;8.27;3.00;;;;;;;6.40;48.70;102219.63;4951105;28;20088;-76
2022/11/15 09:42:08;;;;;;;5.60;2.37;;;;;;;6.38;49.34;102227.22;4944374;28;20047;-79
2022/11/15 09:45:09;;;;;;;6.80;3.40;;;;;;;6.35;48.65;102226.13;4948219;28;20067;-77
2022/11/15 09:48:08;;;;;;;6.95;2.97;;;;;;;6.32;49.47;102226.78;4947511;28;20105;-76
2022/11/15 09:50:43;;;;;;;11.05;3.25;;;;;;;6.32;49.22;102224.22;4947772;28;20051;-77
2022/11/15 09:53:15;;;;;;;6.20;3.08;;;;;;;6.20;49.99;102215.66;4949077;28;20053;-76
2022/11/15 09:55:58;;;;;;;8.18;3.25;;;;;;;6.23;49.57;102232.19;4947831;28;20182;-76
2022/11/15 09:58:29;;;;;;;;;;;;;;;6.20;48.92;102236.22;4947322;28;20044;-78
2022/11/15 10:01:04;;;;;;;10.18;3.90;;;;;;;6.17;49.52;102231.75;4951476;28;19948;-79
2022/11/15 10:03:36;;;;;;;9.15;3.55;;;;;;;6.16;49.68;102239.34;4947649;28;20047;-78
2022/11/15 10:06:07;;;;;;;5.95;2.67;;;;;;;6.13;49.95;102240.03;4948042;28;20402;-77
2022/11/15 10:08:52;;;;;;;11.07;3.75;;;;;;;6.10;49.54;102237.25;4947710;28;20043;-76
2022/11/15 10:11:26;;;;;;;6.97;3.47;;;;;;;6.05;50.27;102225.75;4945895;28;20564;-79
2022/11/15 10:13:58;;;;;;;10.93;4.03;;;;;;;6.06;49.63;102230.97;4947088;28;20049;-76
2022/11/15 10:17:00;;;;;;;8.65;3.25;;;;;;;6.03;50.00;102238.47;4949394;28;20065;-79
2022/11/15 10:19:36;;;;;;;8.80;3.92;;;;;;;6.00;49.83;102248.56;4946664;28;20051;-77
2022/11/15 10:22:18;;;;;;;7.72;3.63;;;;;;;6.00;49.84;102245.97;4946659;28;20059;-77
2022/11/15 10:24:48;;;;;;;9.00;4.07;;;;;;;6.01;49.65;102250.31;4950098;28;20055;-77
2022/11/15 10:27:20;;;;;;;6.65;3.00;;;;;;;6.03;49.74;102248.75;4946502;28;20062;-77
2022/11/15 10:29:49;;;;;;;7.75;3.80;;;;;;;6.05;48.75;102259.16;4947211;28;20051;-76
2022/11/15 10:32:20;;;;;;;6.97;3.85;;;;;;;6.08;48.19;102265.38;4956038;28;20065;-78
2022/11/15 10:34:49;;;;;;;8.93;4.25;;;;;;;6.12;48.26;102258.81;4949034;28;20047;-77
2022/11/15 10:37:30;;;;;;;10.40;4.65;;;;;;;6.13;48.34;102262.25;4952710;28;20055;-79
2022/11/15 10:40:06;;;;;;;6.90;4.00;;;;;;;6.16;48.21;102267.59;4949590;28;20101;-78
2022/11/15 10:42:37;;;;;;;7.80;3.88;;;;;;;6.17;48.34;102252.31;4952798;28;20073;-78
2022/11/15 10:45:25;;;;;;;11.07;4.45;;;;;;;6.20;48.39;102261.91;4952760;28;20457;-77
2022/11/15 10:47:54;;;;;;;8.45;4.15;;;;;;;6.21;48.16;102268.84;4948546;28;20073;-79
2022/11/15 10:50:34;;;;;;;8.52;3.80;;;;;;;6.20;48.46;102267.94;4948272;28;20051;-78
2022/11/15 10:53:06;;;;;;;11.98;5.35;;;;;;;6.19;48.62;102270.44;4953345;28;20057;-77
2022/11/15 10:55:35;;;;;;;14.88;4.85;;;;;;;6.22;47.82;102262.91;4945813;28;20071;-77
2022/11/15 10:58:08;;;;;;;5.22;3.20;;;;;;;6.21;47.60;102263.72;4949918;28;20082;-78
2022/11/15 11:00:38;;;;;;;;;;;;;;;6.24;48.37;102263.94;4948722;28;20058;-78
2022/11/15 11:03:08;;;;;;;9.18;4.30;;;;;;;6.24;47.82;102259.66;4954481;28;19926;-78
2022/11/15 11:05:38;;;;;;;8.77;3.85;;;;;;;6.24;48.31;102257.09;4950915;28;20074;-78
2022/11/15 11:08:25;;;;;;;6.88;3.63;;;;;;;6.25;47.76;102260.56;4953425;28;20055;-77
2022/11/15 11:10:58;;;;;;;7.43;4.00;;;;;;;6.26;47.87;102264.94;4951160;28;20039;-78
2022/11/15 11:13:28;;;;;;;;;;;;;;;6.28;47.72;102268.50;4949424;28;20058;-77
2022/11/15 11:16:02;;;;;;;11.45;4.05;;;;;;;6.27;47.91;102265.03;4950470;28;20308;-78
2022/11/15 11:18:40;;;;;;;11.27;3.97;;;;;;;6.25;48.38;102265.69;4950038;28;20129;-76
2022/11/15 11:21:14;;;;;;;9.75;4.25;;;;;;;6.24;48.21;102253.63;4949193;28;20568;-78
2022/11/15 11:23:53;;;;;;;8.52;4.15;;;;;;;6.24;47.68;102263.94;4951491;28;20050;-77
2022/11/15 11:26:37;;;;;;;8.70;3.35;;;;;;;6.20;47.50;102265.38;4952151;28;20634;-78
2022/11/15 11:29:27;;;;;;;7.45;3.67;;;;;;;6.20;48.13;102274.75;4951051;28;20059;-78
2022/11/15 11:32:04;;;;;;;8.45;4.22;;;;;;;6.18;48.05;102271.19;4950182;28;20046;-79
2022/11/15 11:34:46;;;;;;;10.32;4.13;;;;;;;6.18;47.87;102269.50;4952701;28;20604;-79
2022/11/15 11:37:22;;;;;;;8.65;4.47;;;;;;;6.19;47.96;102266.16;4953964;28;20055;-77
2022/11/15 11:40:06;;;;;;;7.40;3.67;;;;;;;6.20;48.44;102262.78;4946800;28;20588;-75
2022/11/15 11:42:43;;;;;;;9.13;3.85;;;;;;;6.17;48.14;102287.41;4951951;28;20043;-78
2022/11/15 11:45:22;;;;;;;8.48;3.90;;;;;;;6.17;47.73;102287.41;4946545;28;20053;-78
2022/11/15 11:48:03;;;;;;;9.48;4.50;;;;;;;6.14;47.86;102285.50;4949710;28;20055;-77
2022/11/15 11:50:32;;;;;;;8.75;4.28;;;;;;;6.14;48.70;102294.88;4946710;28;20054;-77
2022/11/15 11:53:10;;;;;;;10.65;4.15;;;;;;;6.12;48.72;102293.91;4947097;28;20122;-77
2022/11/15 11:55:44;;;;;;;10.77;4.18;;;;;;;6.12;47.63;102292.22;4952692;28;20047;-78
2022/11/15 11:58:17;;;;;;;9.65;3.83;;;;;;;6.15;47.74;102288.97;4951366;28;20063;-77
2022/11/15 12:00:53;;;;;;;9.90;4.15;;;;;;;6.13;48.53;102296.56;4951079;28;20051;-78
2022/11/15 12:03:30;;;;;;;10.85;4.30;;;;;;;6.17;48.64;102303.72;4948131;28;20066;-78